createdAt,value
2022-11-09T00:02:25.094Z,2.00
2022-11-09T00:05:27.581Z,1.88
2022-11-09T00:08:30.188Z,2.05
2022-11-09T00:11:33.999Z,2.28
2022-11-09T00:14:36.720Z,2.22
2022-11-09T00:17:40.274Z,2.65
2022-11-09T00:20:47.206Z,1.80
2022-11-09T00:23:51.250Z,2.15
2022-11-09T00:26:55.113Z,2.38
2022-11-09T00:29:57.684Z,2.28
2022-11-09T00:33:00.256Z,2.10
2022-11-09T00:36:07.544Z,1.95
2022-11-09T00:39:10.235Z,2.22
2022-11-09T00:42:14.012Z,2.13
2022-11-09T00:45:16.658Z,2.30
2022-11-09T00:48:19.188Z,2.05
2022-11-09T00:51:21.669Z,2.00
2022-11-09T00:54:24.168Z,2.42
2022-11-09T00:57:28.046Z,2.25
2022-11-09T01:00:30.536Z,2.20
2022-11-09T01:03:33.025Z,2.08
2022-11-09T01:06:35.680Z,2.28
2022-11-09T01:09:38.412Z,2.75
2022-11-09T01:12:42.201Z,2.05
2022-11-09T01:15:46.675Z,1.73
2022-11-09T01:18:49.408Z,2.08
2022-11-09T01:21:51.873Z,2.35
2022-11-09T01:24:54.362Z,2.40
2022-11-09T01:28:00.008Z,1.95
2022-11-09T01:31:04.877Z,2.20
2022-11-09T01:34:07.408Z,2.03
2022-11-09T01:37:09.962Z,2.58
2022-11-09T01:40:13.078Z,2.30
2022-11-09T01:43:19.410Z,2.25
2022-11-09T01:46:27.562Z,2.30
2022-11-09T01:49:41.005Z,2.10
2022-11-09T01:52:49.214Z,2.30
2022-11-09T01:55:55.417Z,2.00
2022-11-09T01:59:01.931Z,2.60
2022-11-09T02:02:05.683Z,2.25
2022-11-09T02:05:11.692Z,2.03
2022-11-09T02:08:18.967Z,2.08
2022-11-09T02:11:24.696Z,2.30
2022-11-09T02:14:30.965Z,1.92
2022-11-09T02:17:33.823Z,2.63
2022-11-09T02:20:48.247Z,2.25
2022-11-09T02:23:51.253Z,2.00
2022-11-09T02:26:54.959Z,2.10
2022-11-09T02:29:59.399Z,2.25
2022-11-09T02:33:01.935Z,2.15
2022-11-09T02:36:06.309Z,2.10
2022-11-09T02:39:08.811Z,2.15
2022-11-09T02:42:20.996Z,2.10
2022-11-09T02:45:24.050Z,2.13
2022-11-09T02:48:26.675Z,2.00
2022-11-09T02:51:30.981Z,2.25
2022-11-09T02:54:33.481Z,1.92
2022-11-09T02:57:36.109Z,2.10
2022-11-09T03:00:38.593Z,2.03
2022-11-09T03:03:41.326Z,2.25
2022-11-09T03:06:45.153Z,2.05
2022-11-09T03:09:47.656Z,2.45
2022-11-09T03:12:50.113Z,2.15
2022-11-09T03:15:52.563Z,2.40
2022-11-09T03:18:56.712Z,2.03
2022-11-09T03:22:00.489Z,2.45
2022-11-09T03:25:02.938Z,1.90
2022-11-09T03:28:08.339Z,2.30
2022-11-09T03:31:10.862Z,1.95
2022-11-09T03:34:13.451Z,2.50
2022-11-09T03:37:17.249Z,2.40
2022-11-09T03:40:20.308Z,1.65
2022-11-09T03:43:23.001Z,2.30
2022-11-09T03:46:25.618Z,2.15
2022-11-09T03:49:28.162Z,1.90
2022-11-09T03:52:31.925Z,2.10
2022-11-09T03:55:34.503Z,1.95
2022-11-09T03:58:37.171Z,2.33
2022-11-09T04:01:39.659Z,2.22
2022-11-09T04:04:42.243Z,2.53
2022-11-09T04:07:50.252Z,1.60
2022-11-09T04:10:52.727Z,2.10
2022-11-09T04:13:55.195Z,2.20
2022-11-09T04:16:57.753Z,1.88
2022-11-09T04:20:00.194Z,2.10
2022-11-09T04:23:06.370Z,2.47
2022-11-09T04:26:08.886Z,1.95
2022-11-09T04:29:11.454Z,2.20
2022-11-09T04:32:13.935Z,1.90
2022-11-09T04:35:16.549Z,1.63
2022-11-09T04:38:20.451Z,2.22
2022-11-09T04:41:22.912Z,2.10
2022-11-09T04:44:25.414Z,1.90
2022-11-09T04:47:28.434Z,2.28
2022-11-09T04:50:31.326Z,1.60
2022-11-09T04:53:36.201Z,1.70
2022-11-09T04:56:38.706Z,2.03
2022-11-09T04:59:41.171Z,2.03
2022-11-09T05:02:43.635Z,2.20
2022-11-09T05:05:48.518Z,1.77
2022-11-09T05:08:53.115Z,1.98
2022-11-09T05:11:55.583Z,2.08
2022-11-09T05:14:58.053Z,2.03
2022-11-09T05:18:01.631Z,1.85
2022-11-09T05:21:04.659Z,1.80
2022-11-09T05:24:08.499Z,1.83
2022-11-09T05:27:11.265Z,1.77
2022-11-09T05:30:14.187Z,2.20
2022-11-09T05:33:17.326Z,1.90
2022-11-09T05:36:20.762Z,1.95
2022-11-09T05:39:24.559Z,2.05
2022-11-09T05:42:27.330Z,1.63
2022-11-09T05:45:42.509Z,1.90
2022-11-09T05:48:46.882Z,1.73
2022-11-09T05:51:49.369Z,1.83
2022-11-09T05:54:53.291Z,2.00
2022-11-09T05:57:56.005Z,1.70
2022-11-09T06:00:59.815Z,2.38
2022-11-09T06:04:02.465Z,1.95
2022-11-09T06:07:04.984Z,1.92
2022-11-09T06:10:10.451Z,1.95
2022-11-09T06:13:12.923Z,1.92
2022-11-09T06:16:15.612Z,2.13
2022-11-09T06:19:18.143Z,2.00
2022-11-09T06:22:20.581Z,1.80
2022-11-09T06:25:25.178Z,1.80
2022-11-09T06:28:28.541Z,1.95
2022-11-09T06:31:31.205Z,1.70
2022-11-09T06:34:33.682Z,1.80
2022-11-09T06:37:36.121Z,2.25
2022-11-09T06:40:39.947Z,1.95
2022-11-09T06:43:42.453Z,1.83
2022-11-09T06:46:44.905Z,2.28
2022-11-09T06:49:47.432Z,2.00
2022-11-09T06:52:49.923Z,2.30
2022-11-09T06:55:53.712Z,1.98
2022-11-09T06:58:56.682Z,1.98
2022-11-09T07:02:01.667Z,2.00
2022-11-09T07:05:04.759Z,2.00
2022-11-09T07:08:07.327Z,1.65
2022-11-09T07:11:12.995Z,2.63
2022-11-09T07:14:15.468Z,2.53
2022-11-09T07:17:18.173Z,2.17
2022-11-09T07:20:20.625Z,2.17
2022-11-09T07:23:23.372Z,2.60
2022-11-09T07:26:27.453Z,2.38
2022-11-09T07:29:29.951Z,2.15
2022-11-09T07:33:07.348Z,2.20
2022-11-09T07:35:56.520Z,2.40
2022-11-09T07:38:59.260Z,2.10
2022-11-09T07:42:03.059Z,2.17
2022-11-09T07:45:06.383Z,2.15
2022-11-09T07:48:10.949Z,2.55
2022-11-09T07:51:13.471Z,2.00
2022-11-09T07:54:15.972Z,1.95
2022-11-09T07:57:19.990Z,2.13
2022-11-09T08:00:23.777Z,2.28
2022-11-09T08:03:27.098Z,2.70
2022-11-09T08:06:29.790Z,2.05
2022-11-09T08:09:32.273Z,2.40
2022-11-09T08:12:37.429Z,2.63
2022-11-09T08:15:41.082Z,2.42
2022-11-09T08:18:43.532Z,2.40
2022-11-09T08:21:46.032Z,2.45
2022-11-09T08:24:48.503Z,1.88
2022-11-09T08:27:52.371Z,2.42
2022-11-09T08:31:00.088Z,2.30
2022-11-09T08:34:02.773Z,2.50
2022-11-09T08:37:06.230Z,2.20
2022-11-09T08:40:09.935Z,2.35
2022-11-09T08:43:14.123Z,2.50
2022-11-09T08:46:16.615Z,2.33
2022-11-09T08:49:19.070Z,2.20
2022-11-09T08:52:21.656Z,2.40
2022-11-09T08:55:24.559Z,2.40
2022-11-09T08:58:28.445Z,2.83
2022-11-09T09:01:30.970Z,2.50
2022-11-09T09:04:33.572Z,2.17
2022-11-09T09:07:36.155Z,2.88
2022-11-09T09:10:38.730Z,2.33
2022-11-09T09:13:43.703Z,2.60
2022-11-09T09:16:46.469Z,2.72
2022-11-09T09:19:50.198Z,2.80
2022-11-09T09:22:52.864Z,3.03
2022-11-09T09:25:58.720Z,2.42
2022-11-09T09:29:02.687Z,2.13
2022-11-09T09:32:05.582Z,2.67
2022-11-09T09:35:08.761Z,2.50
2022-11-09T09:38:11.390Z,3.30
2022-11-09T09:41:22.660Z,2.28
2022-11-09T09:44:31.470Z,2.38
2022-11-09T09:47:47.137Z,2.38
2022-11-09T09:50:53.181Z,2.35
2022-11-09T09:54:00.138Z,2.63
2022-11-09T09:57:03.857Z,3.00
2022-11-09T10:00:10.500Z,2.45
2022-11-09T10:03:18.594Z,2.20
2022-11-09T10:06:38.686Z,2.67
2022-11-09T10:10:03.469Z,2.10
2022-11-09T10:13:27.858Z,2.53
2022-11-09T10:16:39.547Z,2.80
2022-11-09T10:19:57.026Z,2.45
2022-11-09T10:23:13.665Z,2.38
2022-11-09T10:26:20.042Z,2.50
2022-11-09T10:29:24.801Z,2.53
2022-11-09T10:32:32.442Z,2.40
2022-11-09T10:35:38.621Z,2.33
2022-11-09T10:38:45.873Z,2.40
2022-11-09T10:41:48.351Z,2.50
2022-11-09T10:44:50.931Z,2.63
2022-11-09T10:47:54.863Z,2.30
2022-11-09T10:50:58.354Z,2.10
2022-11-09T10:54:19.707Z,3.25
2022-11-09T10:57:24.099Z,2.38
2022-11-09T11:00:26.835Z,2.78
2022-11-09T11:03:33.167Z,2.15
2022-11-09T11:06:35.657Z,2.63
2022-11-09T11:09:38.203Z,2.45
2022-11-09T11:12:40.699Z,2.13
2022-11-09T11:15:43.964Z,2.30
2022-11-09T11:18:48.920Z,1.80
2022-11-09T11:22:19.080Z,1.98
2022-11-09T11:25:24.954Z,2.10
2022-11-09T11:28:34.087Z,2.40
2022-11-09T11:31:36.549Z,1.90
2022-11-09T11:34:59.256Z,2.30
2022-11-09T11:38:21.719Z,2.25
2022-11-09T11:41:45.057Z,1.95
2022-11-09T11:45:25.612Z,2.38
2022-11-09T11:48:46.306Z,2.35
2022-11-09T11:51:59.880Z,2.38
2022-11-09T11:55:19.075Z,1.75
2022-11-09T11:58:36.303Z,2.10
2022-11-09T12:01:50.450Z,2.10
2022-11-09T12:05:26.050Z,2.25
2022-11-09T12:08:40.936Z,2.00
2022-11-09T12:11:54.729Z,1.85
2022-11-09T12:15:13.001Z,2.20
2022-11-09T12:18:28.715Z,2.13
2022-11-09T12:21:40.371Z,2.15
2022-11-09T12:24:49.790Z,2.53
2022-11-09T12:28:03.201Z,1.73
2022-11-09T12:31:17.269Z,1.80
2022-11-09T12:34:24.409Z,2.20
2022-11-09T12:37:31.280Z,1.80
2022-11-09T12:40:39.559Z,1.83
2022-11-09T12:43:48.118Z,1.90
2022-11-09T12:46:55.243Z,1.77
2022-11-09T12:49:58.054Z,1.98
2022-11-09T12:53:04.104Z,1.95
2022-11-09T12:56:12.399Z,2.22
2022-11-09T12:59:23.077Z,2.15
2022-11-09T13:02:30.688Z,1.58
2022-11-09T13:05:35.894Z,1.80
2022-11-09T13:08:40.117Z,1.67
2022-11-09T13:11:47.176Z,1.98
2022-11-09T13:14:49.683Z,1.83
2022-11-09T13:17:57.092Z,2.10
2022-11-09T13:21:36.144Z,1.92
2022-11-09T13:24:54.716Z,1.80
2022-11-09T13:27:57.705Z,1.48
2022-11-09T13:31:01.308Z,1.52
2022-11-09T13:34:33.599Z,1.63
2022-11-09T13:37:49.199Z,1.83
2022-11-09T13:40:56.838Z,2.03
2022-11-09T13:44:15.454Z,1.98
2022-11-09T13:47:23.838Z,2.00
2022-11-09T13:50:29.156Z,2.00
2022-11-09T13:53:52.866Z,1.63
2022-11-09T13:56:55.812Z,1.70
2022-11-09T14:00:00.725Z,1.65
2022-11-09T14:03:06.674Z,1.58
2022-11-09T14:06:13.251Z,1.45
2022-11-09T14:09:20.607Z,1.63
2022-11-09T14:12:38.172Z,1.73
2022-11-09T14:15:49.226Z,1.60
2022-11-09T14:19:02.971Z,1.85
2022-11-09T14:22:15.999Z,1.60
2022-11-09T14:25:23.423Z,1.60
2022-11-09T14:28:29.231Z,1.73
2022-11-09T14:31:32.069Z,1.25
2022-11-09T14:34:34.530Z,1.60
2022-11-09T14:37:37.499Z,1.50
2022-11-09T14:40:45.582Z,1.52
2022-11-09T14:43:50.172Z,1.70
2022-11-09T14:46:54.515Z,1.67
2022-11-09T14:49:57.721Z,1.40
2022-11-09T14:53:02.261Z,1.38
2022-11-09T14:56:07.775Z,1.88
2022-11-09T14:59:15.474Z,1.42
2022-11-09T15:02:19.556Z,1.40
2022-11-09T15:05:39.816Z,1.63
2022-11-09T15:08:53.145Z,1.60
2022-11-09T15:11:57.359Z,2.00
2022-11-09T15:15:02.286Z,1.40
2022-11-09T15:18:05.709Z,1.52
2022-11-09T15:21:13.731Z,1.35
2022-11-09T15:24:17.835Z,1.48
2022-11-09T15:27:34.745Z,1.30
2022-11-09T15:30:44.577Z,1.55
2022-11-09T15:33:51.427Z,2.20
2022-11-09T15:36:55.590Z,1.80
2022-11-09T15:39:59.616Z,1.45
2022-11-09T15:43:04.091Z,1.67
2022-11-09T15:46:07.618Z,1.50
2022-11-09T15:49:17.525Z,1.60
2022-11-09T15:52:20.479Z,1.40
2022-11-09T15:55:24.407Z,1.73
2022-11-09T15:58:28.915Z,1.80
2022-11-09T16:01:33.130Z,1.23
2022-11-09T16:04:36.088Z,1.77
2022-11-09T16:07:45.427Z,1.92
2022-11-09T16:10:48.982Z,1.88
2022-11-09T16:13:53.662Z,1.85
2022-11-09T16:16:57.202Z,2.00
2022-11-09T16:20:02.065Z,2.08
2022-11-09T16:23:10.547Z,1.88
2022-11-09T16:26:15.218Z,1.70
2022-11-09T16:29:19.101Z,2.42
2022-11-09T16:32:21.781Z,2.90
2022-11-09T16:35:28.499Z,2.58
2022-11-09T16:38:35.490Z,2.25
2022-11-09T16:41:40.058Z,1.80
2022-11-09T16:44:46.552Z,1.67
2022-11-09T16:47:56.299Z,1.27
2022-11-09T16:50:58.850Z,0.80
2022-11-09T16:54:01.358Z,1.00
2022-11-09T16:57:04.594Z,1.00
2022-11-09T17:00:09.939Z,1.15
2022-11-09T17:03:13.101Z,1.45
2022-11-09T17:06:15.833Z,1.20
2022-11-09T17:09:20.654Z,1.65
2022-11-09T17:12:23.224Z,1.27
2022-11-09T17:15:27.582Z,0.95
2022-11-09T17:18:30.071Z,1.27
2022-11-09T17:21:33.019Z,1.00
2022-11-09T17:24:35.589Z,1.02
2022-11-09T17:27:38.593Z,0.98
2022-11-09T17:30:42.704Z,1.10
2022-11-09T17:33:45.625Z,1.00
2022-11-09T17:37:05.111Z,1.25
2022-11-09T17:40:09.178Z,1.00
2022-11-09T17:43:11.734Z,1.00
2022-11-09T17:46:17.631Z,1.00
2022-11-09T17:49:20.386Z,0.90
2022-11-09T17:52:22.960Z,1.20
2022-11-09T17:55:25.592Z,1.05
2022-11-09T17:58:28.324Z,0.98
2022-11-09T18:01:36.350Z,0.95
2022-11-09T18:04:42.094Z,0.88
2022-11-09T18:07:44.663Z,0.68
2022-11-09T18:10:50.888Z,0.80
2022-11-09T18:13:53.427Z,0.80
2022-11-09T18:16:59.558Z,0.60
2022-11-09T18:20:02.159Z,0.80
2022-11-09T18:23:04.783Z,0.40
2022-11-09T18:26:08.145Z,0.80
2022-11-09T18:29:10.716Z,0.40
2022-11-09T18:32:14.618Z,0.90
2022-11-09T18:35:17.253Z,0.68
2022-11-09T18:38:20.488Z,0.60
2022-11-09T18:41:24.929Z,0.38
2022-11-09T18:44:27.484Z,0.43
2022-11-09T18:47:31.498Z,0.60
2022-11-09T18:50:34.099Z,0.60
2022-11-09T18:53:39.038Z,0.65
2022-11-09T18:56:41.609Z,0.70
2022-11-09T18:59:44.157Z,0.50
2022-11-09T19:02:48.060Z,0.60
2022-11-09T19:05:50.707Z,0.57
2022-11-09T19:09:11.015Z,0.73
2022-11-09T19:12:14.750Z,0.60
2022-11-09T19:15:17.391Z,0.52
2022-11-09T19:18:21.510Z,0.40
2022-11-09T19:21:36.295Z,0.40
2022-11-09T19:24:38.815Z,0.65
2022-11-09T19:27:41.394Z,0.70
2022-11-09T19:30:43.884Z,0.73
2022-11-09T19:33:47.864Z,0.85
2022-11-09T19:36:50.528Z,0.50
2022-11-09T19:39:52.988Z,0.90
2022-11-09T19:42:55.467Z,0.80
2022-11-09T19:45:58.002Z,0.90
2022-11-09T19:49:03.025Z,0.90
2022-11-09T19:52:05.911Z,0.77
2022-11-09T19:55:09.324Z,0.70
2022-11-09T19:58:12.075Z,1.00
2022-11-09T20:01:14.684Z,0.80
2022-11-09T20:04:18.670Z,1.00
2022-11-09T20:07:21.875Z,1.90
2022-11-09T20:10:24.955Z,1.90
2022-11-09T20:13:27.479Z,1.83
2022-11-09T20:16:30.372Z,1.02
2022-11-09T20:19:34.166Z,0.80
2022-11-09T20:22:36.860Z,1.15
2022-11-09T20:25:39.466Z,0.65
2022-11-09T20:28:42.056Z,0.82
2022-11-09T20:31:44.596Z,0.70
2022-11-09T20:34:49.375Z,0.90
2022-11-09T20:37:51.919Z,1.33
2022-11-09T20:40:55.544Z,0.95
2022-11-09T20:43:58.036Z,0.93
2022-11-09T20:47:00.590Z,1.00
2022-11-09T20:50:04.915Z,1.17
2022-11-09T20:53:07.531Z,0.90
2022-11-09T20:56:10.120Z,1.10
2022-11-09T20:59:12.844Z,1.00
2022-11-09T21:02:16.268Z,1.27
2022-11-09T21:05:20.349Z,1.50
2022-11-09T21:08:23.213Z,1.38
2022-11-09T21:11:28.666Z,1.23
2022-11-09T21:14:31.318Z,1.00
2022-11-09T21:17:34.075Z,1.30
2022-11-09T21:20:38.641Z,1.13
2022-11-09T21:23:59.009Z,1.20
2022-11-09T21:27:21.576Z,1.45
2022-11-09T21:30:24.116Z,1.30
2022-11-09T21:33:26.586Z,1.60
2022-11-09T21:36:30.403Z,1.52
2022-11-09T21:39:32.966Z,1.55
2022-11-09T21:42:35.562Z,1.70
2022-11-09T21:45:38.132Z,1.58
2022-11-09T21:48:40.749Z,1.50
2022-11-09T21:51:44.553Z,1.48
2022-11-09T21:54:47.017Z,1.77
2022-11-09T21:57:49.804Z,1.80
2022-11-09T22:00:52.401Z,1.88
2022-11-09T22:03:55.188Z,1.70
2022-11-09T22:06:59.151Z,1.63
2022-11-09T22:10:10.698Z,1.80
2022-11-09T22:13:32.616Z,2.78
2022-11-09T22:16:35.368Z,2.30
2022-11-09T22:19:56.711Z,1.73
2022-11-09T22:23:00.628Z,2.17
2022-11-09T22:26:03.197Z,2.28
2022-11-09T22:29:06.287Z,2.03
2022-11-09T22:32:08.947Z,1.92
2022-11-09T22:35:11.407Z,1.77
2022-11-09T22:38:15.243Z,2.03
2022-11-09T22:41:18.023Z,1.90
2022-11-09T22:44:20.533Z,1.92
2022-11-09T22:47:23.146Z,1.70
